Time;durP1;ratioP1;P1;durP2;ratioP2;P2;SDS_P1;SDS_P2;PMS_P1;PMS_P2;Temp;Humidity;BMP_temperature;BMP_pressure;BME280_temperature;BME280_humidity;BME280_pressure;Samples;Min_cycle;Max_cycle;Signal;HPM_P1;HPM_P2
2021/01/18 00:00:19;;;;;;;4.72;4.15;;;3.90;99.90;;;;;;5061818;28;20827;-58
2021/01/18 00:02:44;;;;;;;8.95;5.00;;;4.00;99.90;;;;;;5059789;28;20383;-58
2021/01/18 00:05:10;;;;;;;7.50;4.97;;;4.00;99.90;;;;;;5065808;28;20185;-58
2021/01/18 00:07:50;;;;;;;5.87;5.30;;;4.20;99.90;;;;;;5059128;28;20241;-58
2021/01/18 00:10:23;;;;;;;6.78;5.32;;;4.60;99.90;;;;;;5060572;28;20205;-57
2021/01/18 00:12:53;;;;;;;6.22;4.97;;;4.40;99.90;;;;;;5067289;28;20684;-58
2021/01/18 00:15:21;;;;;;;5.95;4.80;;;4.50;99.90;;;;;;5065891;28;20177;-58
2021/01/18 00:17:48;;;;;;;4.72;4.22;;;4.40;99.90;;;;;;5058192;28;20191;-57
2021/01/18 00:20:16;;;;;;;4.78;3.90;;;4.20;99.90;;;;;;5064393;28;20554;-57
2021/01/18 00:22:42;;;;;;;5.32;4.75;;;4.00;99.90;;;;;;5065031;28;20192;-58
2021/01/18 00:25:09;;;;;;;5.40;4.35;;;4.20;99.90;;;;;;5052750;28;20658;-58
2021/01/18 00:27:35;;;;;;;6.20;4.45;;;4.10;99.90;;;;;;5066543;28;20240;-57
2021/01/18 00:30:03;;;;;;;5.15;4.65;;;4.30;99.90;;;;;;5060639;28;20222;-58
2021/01/18 00:32:29;;;;;;;5.72;4.10;;;4.10;99.90;;;;;;5061093;28;20651;-58
2021/01/18 00:34:55;;;;;;;4.47;3.80;;;4.30;99.90;;;;;;5061656;28;20182;-58
2021/01/18 00:37:20;;;;;;;6.10;4.40;;;4.20;99.90;;;;;;5063008;28;20193;-58
2021/01/18 00:39:46;;;;;;;4.73;4.23;;;4.30;99.90;;;;;;5067883;28;20223;-58
2021/01/18 00:42:18;;;;;;;5.70;4.70;;;4.40;99.90;;;;;;5061537;28;20197;-58
2021/01/18 00:44:44;;;;;;;7.95;4.72;;;4.30;99.90;;;;;;5060546;28;20190;-58
2021/01/18 00:47:10;;;;;;;6.23;4.40;;;4.40;99.90;;;;;;5053929;28;20220;-57
2021/01/18 00:49:35;;;;;;;5.97;4.60;;;4.10;99.90;;;;;;5067461;28;20205;-59
2021/01/18 00:52:01;;;;;;;5.83;4.40;;;4.10;99.90;;;;;;5067569;28;20184;-58
2021/01/18 00:54:26;;;;;;;6.27;4.30;;;3.90;99.90;;;;;;5065874;28;20287;-57
2021/01/18 00:56:52;;;;;;;5.90;4.50;;;4.10;99.90;;;;;;5060534;28;20182;-57
2021/01/18 00:59:17;;;;;;;4.20;3.80;;;4.20;99.90;;;;;;5056485;28;20233;-58
2021/01/18 01:01:43;;;;;;;5.10;4.30;;;4.00;99.90;;;;;;5060996;28;20193;-58
2021/01/18 01:04:09;;;;;;;6.10;3.93;;;4.30;99.90;;;;;;5067514;28;20681;-58
2021/01/18 01:06:34;;;;;;;6.20;4.00;;;4.30;99.90;;;;;;5062844;28;20209;-57
2021/01/18 01:09:01;;;;;;;4.77;4.30;;;4.30;99.90;;;;;;5067542;28;20205;-58
2021/01/18 01:11:27;;;;;;;4.78;4.10;;;4.20;99.90;;;;;;5060329;28;20194;-58
2021/01/18 01:13:52;;;;;;;5.03;4.10;;;4.20;99.90;;;;;;5060297;28;20189;-58
2021/01/18 01:16:18;;;;;;;4.97;3.80;;;4.20;99.90;;;;;;5065220;28;20233;-58
2021/01/18 01:18:44;;;;;;;4.90;4.20;;;4.30;99.90;;;;;;5056455;28;20286;-58
2021/01/18 01:21:10;;;;;;;5.10;4.30;;;4.20;99.90;;;;;;5066572;28;20445;-58
2021/01/18 01:23:35;;;;;;;4.13;3.67;;;3.80;99.90;;;;;;5061101;28;20185;-58
2021/01/18 01:26:01;;;;;;;6.10;3.57;;;3.80;99.90;;;;;;5063151;28;20210;-58
2021/01/18 01:28:27;;;;;;;6.65;3.80;;;3.80;99.90;;;;;;5070722;28;20229;-58
2021/01/18 01:30:53;;;;;;;3.93;3.20;;;4.10;99.90;;;;;;5061373;28;20205;-59
2021/01/18 01:33:18;;;;;;;4.60;3.90;;;3.90;99.90;;;;;;5066091;28;20185;-57
2021/01/18 01:35:44;;;;;;;4.30;3.30;;;4.00;99.90;;;;;;5068308;28;20621;-57
2021/01/18 01:38:10;;;;;;;5.13;3.43;;;4.10;99.90;;;;;;5060140;28;20182;-58
2021/01/18 01:40:35;;;;;;;3.90;3.47;;;4.00;99.90;;;;;;5065073;28;20275;-58
2021/01/18 01:43:02;;;;;;;4.57;3.30;;;3.90;99.90;;;;;;5067198;28;20530;-58
2021/01/18 01:45:28;;;;;;;4.75;3.53;;;3.80;99.90;;;;;;5068351;28;20561;-58
2021/01/18 01:47:55;;;;;;;5.40;3.43;;;4.00;99.90;;;;;;5070453;28;20221;-58
2021/01/18 01:50:27;;;;;;;4.25;2.97;;;3.80;99.90;;;;;;5062313;28;20224;-58
2021/01/18 01:53:20;;;;;;;4.40;3.33;;;4.20;99.90;;;;;;5060681;28;20199;-58
2021/01/18 01:55:46;;;;;;;3.17;2.88;;;4.10;99.90;;;;;;5057017;28;20232;-58
2021/01/18 01:58:13;;;;;;;3.97;3.30;;;4.00;99.90;;;;;;5069181;28;20181;-58
2021/01/18 02:00:40;;;;;;;4.57;3.00;;;4.10;99.90;;;;;;5066113;28;20179;-58
2021/01/18 02:03:13;;;;;;;4.38;3.22;;;4.10;99.90;;;;;;5056851;28;20277;-59
2021/01/18 02:05:39;;;;;;;3.08;2.60;;;4.10;99.90;;;;;;5068671;28;20212;-58
2021/01/18 02:08:07;;;;;;;4.57;3.47;;;4.40;99.90;;;;;;5057179;28;20181;-58
2021/01/18 02:10:35;;;;;;;3.20;2.90;;;4.30;99.90;;;;;;5068918;28;20260;-58
2021/01/18 02:13:27;;;;;;;3.00;2.70;;;4.20;99.90;;;;;;5054798;28;20186;-58
2021/01/18 02:16:04;;;;;;;4.00;3.30;;;4.30;99.90;;;;;;5054399;28;20192;-58
2021/01/18 02:18:55;;;;;;;3.05;2.75;;;4.20;99.90;;;;;;5056556;28;20203;-58
2021/01/18 02:21:39;;;;;;;3.40;3.10;;;4.50;99.90;;;;;;5079153;28;20190;-58
2021/01/18 02:24:33;;;;;;;3.47;3.15;;;4.40;99.90;;;;;;5062745;28;20205;-59
2021/01/18 02:27:17;;;;;;;3.00;2.70;;;4.30;99.90;;;;;;5062818;28;20218;-58
2021/01/18 02:30:04;;;;;;;3.70;3.05;;;4.60;99.90;;;;;;5064341;28;20205;-58
2021/01/18 02:32:56;;;;;;;2.75;2.55;;;4.30;99.90;;;;;;5063133;28;20189;-59
2021/01/18 02:35:34;;;;;;;3.50;2.92;;;4.60;99.90;;;;;;5049784;28;20670;-59
2021/01/18 02:38:08;;;;;;;5.97;3.05;;;4.60;99.90;;;;;;5067924;28;20188;-58
2021/01/18 02:41:12;;;;;;;4.35;3.20;;;4.40;99.90;;;;;;5065931;28;20177;-59
2021/01/18 02:43:50;;;;;;;4.32;3.50;;;4.50;99.90;;;;;;5034261;28;20232;-58
2021/01/18 02:46:18;;;;;;;4.15;2.90;;;4.40;99.90;;;;;;5063047;28;20205;-59
2021/01/18 02:48:45;;;;;;;3.55;3.25;;;4.50;99.90;;;;;;5058686;28;20580;-58
2021/01/18 02:51:16;;;;;;;4.40;3.72;;;4.50;99.90;;;;;;5061475;28;20529;-58
2021/01/18 02:54:00;;;;;;;5.65;3.33;;;4.60;99.90;;;;;;5078212;28;20176;-59
2021/01/18 02:56:29;;;;;;;5.13;4.00;;;4.30;99.90;;;;;;5052342;28;20190;-59
2021/01/18 02:58:57;;;;;;;4.72;3.60;;;4.40;99.90;;;;;;5076722;28;20237;-59
2021/01/18 03:02:02;;;;;;;4.47;3.90;;;4.50;99.90;;;;;;5061753;28;20200;-58
2021/01/18 03:05:01;;;;;;;4.80;3.90;;;4.50;99.90;;;;;;5056151;28;20213;-59
2021/01/18 03:07:47;;;;;;;5.80;5.20;;;4.30;99.90;;;;;;5058372;28;20895;-58
2021/01/18 03:10:42;;;;;;;4.95;4.10;;;4.50;99.90;;;;;;5068798;28;20275;-58
2021/01/18 03:13:21;;;;;;;5.93;4.20;;;4.30;99.90;;;;;;5057631;28;20276;-58
2021/01/18 03:15:53;;;;;;;6.43;5.03;;;4.50;99.90;;;;;;5050514;28;20189;-59
2021/01/18 03:18:21;;;;;;;7.50;5.00;;;4.30;99.90;;;;;;5067553;28;20214;-58
2021/01/18 03:20:48;;;;;;;6.47;5.30;;;4.20;99.90;;;;;;5068910;28;20595;-59
2021/01/18 03:23:14;;;;;;;8.63;5.22;;;4.50;99.90;;;;;;5067760;28;20182;-58
2021/01/18 03:25:51;;;;;;;7.38;5.53;;;4.40;99.90;;;;;;5059348;28;20674;-58
2021/01/18 03:28:18;;;;;;;6.88;5.13;;;4.30;99.90;;;;;;5055819;28;20181;-59
2021/01/18 03:30:45;;;;;;;8.13;5.38;;;4.00;99.90;;;;;;5063606;28;20525;-58
2021/01/18 03:33:11;;;;;;;5.85;5.22;;;4.20;99.90;;;;;;5053357;28;20210;-59
2021/01/18 03:35:37;;;;;;;5.25;4.45;;;4.10;99.90;;;;;;5054218;28;20194;-58
2021/01/18 03:38:03;;;;;;;6.63;5.10;;;4.20;99.90;;;;;;5058178;28;20189;-58
2021/01/18 03:40:29;;;;;;;6.97;5.30;;;4.40;99.90;;;;;;5064670;28;20844;-58
2021/01/18 03:43:00;;;;;;;7.00;4.90;;;4.30;99.90;;;;;;5063430;28;20177;-58
2021/01/18 03:45:28;;;;;;;5.65;4.50;;;4.10;99.90;;;;;;5049774;28;20564;-57
2021/01/18 03:47:54;;;;;;;6.95;5.75;;;4.20;99.90;;;;;;5064210;28;20235;-57
2021/01/18 03:50:21;;;;;;;5.63;5.10;;;4.20;99.90;;;;;;5066389;28;20201;-57
2021/01/18 03:52:48;;;;;;;7.80;5.18;;;4.20;99.90;;;;;;5065524;28;20473;-58
2021/01/18 03:55:14;;;;;;;10.05;5.65;;;4.20;99.90;;;;;;5065960;28;20181;-58
2021/01/18 03:57:41;;;;;;;7.97;5.05;;;4.00;99.90;;;;;;5065185;28;20192;-58
2021/01/18 04:00:08;;;;;;;6.15;5.00;;;4.30;99.90;;;;;;5067561;28;20689;-58
2021/01/18 04:02:34;;;;;;;6.53;4.55;;;4.30;99.90;;;;;;5060164;28;20217;-57
2021/01/18 04:05:00;;;;;;;6.57;4.35;;;4.10;99.90;;;;;;5063785;28;20243;-59
2021/01/18 04:07:25;;;;;;;5.43;4.90;;;4.30;99.90;;;;;;5056671;28;20198;-58
2021/01/18 04:09:51;;;;;;;7.50;5.43;;;4.00;99.90;;;;;;5055543;28;20240;-58
2021/01/18 04:12:17;;;;;;;6.23;5.10;;;4.30;99.90;;;;;;5059912;28;20716;-57
2021/01/18 04:14:42;;;;;;;6.90;5.10;;;4.30;99.90;;;;;;5068765;28;20181;-58
2021/01/18 04:17:08;;;;;;;6.43;5.00;;;4.10;99.90;;;;;;5061193;28;20625;-58
2021/01/18 04:19:33;;;;;;;5.70;5.10;;;4.30;99.90;;;;;;5061208;28;20205;-58
2021/01/18 04:21:59;;;;;;;7.27;5.50;;;4.20;99.90;;;;;;5053042;28;20193;-58
2021/01/18 04:24:25;;;;;;;8.43;5.37;;;4.40;99.90;;;;;;5054327;28;20231;-57
2021/01/18 04:26:50;;;;;;;6.47;5.30;;;4.30;99.90;;;;;;5055696;28;20253;-58
2021/01/18 04:29:16;;;;;;;7.17;5.30;;;4.30;99.90;;;;;;5068735;28;20594;-57
2021/01/18 04:31:42;;;;;;;7.78;5.45;;;4.20;99.90;;;;;;5060648;28;20564;-58
2021/01/18 04:34:11;;;;;;;6.97;5.90;;;4.30;99.90;;;;;;5067065;28;20214;-58
2021/01/18 04:36:38;;;;;;;9.30;5.88;;;4.10;99.90;;;;;;5057981;28;20643;-57
2021/01/18 04:39:06;;;;;;;8.98;6.40;;;4.30;99.90;;;;;;5065981;28;20240;-58
2021/01/18 04:41:34;;;;;;;8.20;5.53;;;3.90;99.90;;;;;;5066267;28;20199;-58
2021/01/18 04:44:00;;;;;;;6.38;5.68;;;4.00;99.90;;;;;;5050784;28;20571;-57
2021/01/18 04:46:29;;;;;;;8.47;5.40;;;4.10;99.90;;;;;;5070486;28;20205;-57
2021/01/18 04:48:58;;;;;;;13.02;9.70;;;4.30;99.90;;;;;;5067151;28;20501;-58
2021/01/18 04:51:24;;;;;;;10.68;6.35;;;4.50;99.90;;;;;;5071021;28;20204;-57
2021/01/18 04:53:53;;;;;;;13.07;8.93;;;4.20;99.90;;;;;;5065116;28;20189;-58
2021/01/18 04:56:45;;;;;;;11.25;7.80;;;4.10;99.90;;;;;;5069985;28;20185;-58
2021/01/18 04:59:13;;;;;;;11.55;7.57;;;4.30;99.90;;;;;;5045902;28;20244;-57
2021/01/18 05:01:41;;;;;;;15.43;6.95;;;3.80;99.90;;;;;;5055199;28;20286;-57
2021/01/18 05:04:21;;;;;;;7.63;5.78;;;4.40;99.90;;;;;;5070213;28;20185;-58
2021/01/18 05:06:57;;;;;;;7.60;5.30;;;4.50;99.90;;;;;;5055919;28;20213;-57
2021/01/18 05:09:27;;;;;;;9.73;6.18;;;4.50;99.90;;;;;;5071177;28;20680;-58
2021/01/18 05:11:53;;;;;;;10.02;5.88;;;4.10;99.90;;;;;;5069200;28;20190;-57
2021/01/18 05:14:19;;;;;;;5.53;4.93;;;4.20;99.90;;;;;;5056602;28;20576;-58
2021/01/18 05:16:56;;;;;;;7.60;5.50;;;3.80;99.90;;;;;;5054986;28;20193;-58
2021/01/18 05:19:24;;;;;;;6.85;5.68;;;4.00;99.90;;;;;;5061968;28;20459;-58
2021/01/18 05:21:50;;;;;;;11.98;6.55;;;4.10;99.90;;;;;;5064354;28;20661;-58
2021/01/18 05:24:20;;;;;;;8.97;6.20;;;4.20;99.90;;;;;;5065228;28;20181;-58
2021/01/18 05:27:03;;;;;;;8.60;6.28;;;4.10;99.90;;;;;;5068631;28;20455;-59
2021/01/18 05:29:34;;;;;;;8.80;6.53;;;4.10;99.90;;;;;;5061256;28;20212;-58
2021/01/18 05:32:00;;;;;;;7.90;6.15;;;3.90;99.90;;;;;;5062990;28;20796;-59
2021/01/18 05:34:28;;;;;;;10.03;6.30;;;4.00;99.90;;;;;;5054684;28;20268;-59
2021/01/18 05:36:54;;;;;;;8.50;6.50;;;4.10;99.90;;;;;;5069419;28;20188;-58
2021/01/18 05:39:32;;;;;;;10.05;6.53;;;3.70;99.90;;;;;;5065649;28;20209;-59
2021/01/18 05:41:59;;;;;;;9.45;6.13;;;3.70;99.90;;;;;;5060803;28;20207;-59
2021/01/18 05:44:33;;;;;;;7.90;6.03;;;4.00;99.90;;;;;;5053607;28;20552;-59
2021/01/18 05:47:06;;;;;;;8.45;6.35;;;3.60;99.90;;;;;;5064704;28;20623;-58
2021/01/18 05:49:49;;;;;;;8.35;6.38;;;3.60;99.90;;;;;;5067641;28;20258;-59
2021/01/18 05:52:28;;;;;;;11.80;6.68;;;3.60;99.90;;;;;;5062349;28;20543;-59
2021/01/18 05:55:29;;;;;;;12.13;6.45;;;3.50;99.90;;;;;;5057111;28;20284;-59
2021/01/18 05:57:58;;;;;;;11.40;7.40;;;3.50;99.90;;;;;;5058492;28;20213;-58
2021/01/18 06:00:26;;;;;;;8.68;6.43;;;3.30;99.90;;;;;;5059079;28;20216;-58
2021/01/18 06:02:52;;;;;;;14.02;7.30;;;3.40;99.90;;;;;;5058097;28;20188;-59
2021/01/18 06:05:32;;;;;;;11.07;6.87;;;3.40;99.90;;;;;;5060907;28;20678;-58
2021/01/18 06:08:27;;;;;;;11.48;7.18;;;3.50;99.90;;;;;;5057003;28;20929;-59
2021/01/18 06:11:01;;;;;;;9.27;6.13;;;3.30;99.90;;;;;;5050405;28;20193;-57
2021/01/18 06:13:32;;;;;;;12.65;7.47;;;3.50;99.90;;;;;;5053567;28;20185;-58
2021/01/18 06:16:01;;;;;;;9.40;5.95;;;3.60;99.90;;;;;;5061133;28;20230;-59
2021/01/18 06:18:29;;;;;;;11.95;6.50;;;3.40;99.90;;;;;;5059073;28;20182;-59
2021/01/18 06:20:58;;;;;;;11.23;7.07;;;3.30;99.90;;;;;;5049832;28;20197;-59
2021/01/18 06:23:25;;;;;;;9.02;6.40;;;3.30;99.90;;;;;;5059818;28;20177;-58
2021/01/18 06:25:52;;;;;;;11.95;7.70;;;3.30;99.90;;;;;;5051415;28;20177;-58
2021/01/18 06:28:35;;;;;;;13.70;8.60;;;3.20;99.90;;;;;;5060112;28;20181;-58
2021/01/18 06:31:05;;;;;;;8.27;6.88;;;3.20;99.90;;;;;;5057947;28;20190;-58
2021/01/18 06:33:48;;;;;;;9.05;6.65;;;3.60;99.90;;;;;;5065133;28;20174;-57
2021/01/18 06:36:25;;;;;;;10.20;7.25;;;3.60;99.90;;;;;;5061094;28;20405;-58
2021/01/18 06:38:58;;;;;;;8.75;6.20;;;3.60;99.90;;;;;;5049685;28;20672;-57
2021/01/18 06:41:29;;;;;;;10.82;7.00;;;3.50;99.90;;;;;;5055050;28;20181;-58
2021/01/18 06:43:56;;;;;;;9.70;7.25;;;3.50;99.90;;;;;;5067638;28;20211;-58
2021/01/18 06:46:25;;;;;;;10.48;6.80;;;2.90;99.90;;;;;;5063887;28;20202;-58
2021/01/18 06:48:52;;;;;;;9.23;7.03;;;3.50;99.90;;;;;;5067884;28;20213;-56
2021/01/18 06:51:26;;;;;;;11.52;7.22;;;3.40;99.90;;;;;;5057764;28;20182;-58
2021/01/18 06:53:54;;;;;;;9.95;8.20;;;3.40;99.90;;;;;;5055495;28;20657;-58
2021/01/18 06:56:22;;;;;;;11.15;8.25;;;3.50;99.90;;;;;;5061549;28;20233;-59
2021/01/18 06:59:04;;;;;;;11.27;8.23;;;3.60;99.90;;;;;;5064368;28;20603;-58
2021/01/18 07:01:40;;;;;;;11.90;7.53;;;3.50;99.90;;;;;;5053943;28;20250;-58
2021/01/18 07:04:14;;;;;;;9.60;6.90;;;3.70;99.90;;;;;;5057355;28;20181;-60
2021/01/18 07:06:44;;;;;;;12.00;7.63;;;3.70;99.90;;;;;;5064427;28;20300;-60
2021/01/18 07:09:14;;;;;;;12.25;6.93;;;3.50;99.90;;;;;;5062267;28;20292;-57
2021/01/18 07:11:41;;;;;;;10.68;6.70;;;3.60;99.90;;;;;;5065290;28;20208;-55
2021/01/18 07:14:11;;;;;;;10.00;6.43;;;3.40;99.90;;;;;;5053993;28;20189;-57
2021/01/18 07:16:40;;;;;;;13.35;7.13;;;3.40;99.90;;;;;;5055826;28;20223;-59
2021/01/18 07:19:08;;;;;;;10.38;6.57;;;3.40;99.90;;;;;;5059140;28;20252;-59
2021/01/18 07:21:48;;;;;;;8.80;6.13;;;3.40;99.90;;;;;;5055362;28;20283;-59
2021/01/18 07:24:15;;;;;;;11.73;6.20;;;3.10;99.90;;;;;;5057400;28;20544;-59
2021/01/18 07:27:02;;;;;;;7.50;6.25;;;3.50;99.90;;;;;;5067207;28;20252;-58
2021/01/18 07:29:30;;;;;;;9.13;5.45;;;3.40;99.90;;;;;;5066125;28;20208;-58
2021/01/18 07:31:57;;;;;;;8.25;5.75;;;3.50;99.90;;;;;;5056341;28;20674;-58
2021/01/18 07:34:25;;;;;;;9.20;6.38;;;3.90;99.90;;;;;;5059218;28;20665;-59
2021/01/18 07:36:52;;;;;;;7.93;5.80;;;3.70;99.90;;;;;;5057870;28;20189;-58
2021/01/18 07:39:29;;;;;;;8.75;6.22;;;3.50;99.90;;;;;;5055574;28;20243;-58
2021/01/18 07:41:55;;;;;;;6.30;5.45;;;3.70;99.90;;;;;;5056267;28;20184;-57
2021/01/18 07:44:33;;;;;;;10.05;6.47;;;3.40;99.90;;;;;;5066663;28;20200;-59
2021/01/18 07:47:00;;;;;;;11.23;7.47;;;3.50;99.90;;;;;;5053408;28;20270;-58
2021/01/18 07:49:37;;;;;;;10.02;6.45;;;3.60;99.90;;;;;;5055247;28;20309;-58
2021/01/18 07:52:18;;;;;;;6.28;5.40;;;3.60;99.90;;;;;;5061193;28;20276;-57
2021/01/18 07:54:44;;;;;;;9.02;5.18;;;3.60;99.90;;;;;;5063278;28;20662;-58
2021/01/18 07:57:23;;;;;;;6.80;5.68;;;3.70;99.90;;;;;;5053854;28;20331;-59
2021/01/18 08:00:25;;;;;;;9.48;5.18;;;3.90;99.90;;;;;;5049716;28;20212;-60
2021/01/18 08:02:56;;;;;;;8.35;5.07;;;3.90;99.90;;;;;;5056342;28;20288;-60
2021/01/18 08:05:27;;;;;;;10.90;6.28;;;3.70;99.90;;;;;;5051563;28;20834;-60
2021/01/18 08:08:09;;;;;;;7.78;4.60;;;3.80;99.90;;;;;;5057853;28;20213;-60
2021/01/18 08:10:56;;;;;;;5.78;4.60;;;3.60;99.90;;;;;;5064424;28;20178;-59
2021/01/18 08:13:34;;;;;;;5.57;4.97;;;3.80;99.90;;;;;;5050145;28;20189;-59
2021/01/18 08:16:16;;;;;;;6.20;4.90;;;4.00;99.90;;;;;;5051404;28;20188;-60
2021/01/18 08:19:01;;;;;;;7.57;5.72;;;3.80;99.90;;;;;;5047339;28;20198;-60
2021/01/18 08:21:36;;;;;;;10.75;4.97;;;3.80;99.90;;;;;;5048503;28;20182;-59
2021/01/18 08:24:20;;;;;;;5.63;4.35;;;3.80;99.90;;;;;;5047262;28;20181;-56
2021/01/18 08:27:05;;;;;;;6.38;4.57;;;4.10;99.90;;;;;;5047694;28;20247;-57
2021/01/18 08:29:52;;;;;;;4.88;3.63;;;4.20;99.90;;;;;;5061103;28;20248;-59
2021/01/18 08:32:21;;;;;;;5.05;3.90;;;4.10;99.90;;;;;;5050392;28;20178;-57
2021/01/18 08:34:57;;;;;;;5.72;4.40;;;4.40;99.90;;;;;;5061962;28;20193;-58
2021/01/18 08:37:25;;;;;;;4.35;3.95;;;4.40;99.90;;;;;;5047327;28;20690;-58
2021/01/18 08:39:55;;;;;;;4.07;3.70;;;4.70;99.90;;;;;;5054797;28;20209;-57
2021/01/18 08:42:28;;;;;;;4.90;4.43;;;4.50;99.90;;;;;;5048797;28;20186;-57
2021/01/18 08:45:31;;;;;;;5.95;4.30;;;4.60;99.90;;;;;;5051560;28;20189;-60
2021/01/18 08:48:00;;;;;;;6.75;4.70;;;4.80;99.90;;;;;;5029296;28;20226;-59
2021/01/18 08:50:55;;;;;;;10.13;4.50;;;5.00;99.90;;;;;;5059590;28;20231;-58
2021/01/18 08:53:46;;;;;;;5.45;4.80;;;4.70;99.90;;;;;;5055598;28;20228;-57
2021/01/18 08:56:21;;;;;;;7.82;5.28;;;5.10;99.90;;;;;;5062363;28;20642;-58
2021/01/18 08:58:48;;;;;;;5.30;4.75;;;5.00;99.90;;;;;;5051927;28;20564;-61
2021/01/18 09:01:27;;;;;;;5.35;4.60;;;4.50;99.90;;;;;;5061104;28;20224;-59
2021/01/18 09:04:06;;;;;;;7.55;4.68;;;4.70;99.90;;;;;;5054664;28;20264;-62
2021/01/18 09:06:33;;;;;;;4.28;3.88;;;4.70;99.90;;;;;;5061687;28;20213;-61
2021/01/18 09:09:05;;;;;;;4.85;4.07;;;4.60;99.90;;;;;;5049658;28;20204;-61
2021/01/18 09:11:32;;;;;;;6.03;3.78;;;4.90;99.90;;;;;;5055263;28;20616;-58
2021/01/18 09:13:58;;;;;;;4.63;3.08;;;5.10;99.90;;;;;;5053999;28;20205;-58
2021/01/18 09:16:24;;;;;;;16.07;8.93;;;5.20;99.90;;;;;;5054479;28;20190;-58
2021/01/18 09:18:49;;;;;;;9.67;5.93;;;5.10;99.90;;;;;;5061125;28;20463;-58
2021/01/18 09:21:17;;;;;;;6.80;4.63;;;5.00;99.90;;;;;;5057932;28;20178;-58
2021/01/18 09:23:43;;;;;;;6.28;4.35;;;5.20;99.90;;;;;;5053555;28;20194;-59
2021/01/18 09:26:13;;;;;;;8.10;4.35;;;4.90;99.90;;;;;;5052771;28;20222;-58
2021/01/18 09:28:52;;;;;;;4.38;3.85;;;5.30;99.90;;;;;;5055245;28;20209;-58
2021/01/18 09:31:19;;;;;;;5.53;3.95;;;5.60;99.90;;;;;;5054391;28;20176;-59
2021/01/18 09:33:45;;;;;;;4.32;3.92;;;5.50;99.90;;;;;;5053104;28;20206;-59
2021/01/18 09:36:15;;;;;;;5.93;4.07;;;5.20;99.90;;;;;;5053934;28;20979;-58
2021/01/18 09:38:45;;;;;;;8.38;3.95;;;5.50;99.90;;;;;;5050803;28;20590;-58
2021/01/18 09:41:12;;;;;;;4.45;3.42;;;5.50;99.90;;;;;;5055925;28;20194;-57
2021/01/18 09:43:39;;;;;;;4.13;3.67;;;5.50;99.90;;;;;;5059741;28;20237;-57
2021/01/18 09:46:05;;;;;;;3.88;3.55;;;5.60;99.90;;;;;;5049018;28;20184;-59
2021/01/18 09:48:31;;;;;;;5.50;4.13;;;5.50;99.90;;;;;;5056256;28;20214;-59
2021/01/18 09:50:59;;;;;;;5.70;4.00;;;6.00;99.90;;;;;;5055589;28;20191;-59
2021/01/18 09:53:25;;;;;;;4.95;4.40;;;5.70;99.90;;;;;;5056378;28;20180;-59
2021/01/18 09:55:52;;;;;;;6.03;4.43;;;5.40;99.90;;;;;;5052191;28;20269;-60
2021/01/18 09:58:30;;;;;;;4.18;3.75;;;5.70;99.90;;;;;;5052462;28;20274;-58
2021/01/18 10:00:57;;;;;;;6.18;3.75;;;6.00;99.90;;;;;;5059666;28;20306;-58
2021/01/18 10:03:32;;;;;;;5.55;4.22;;;5.80;99.90;;;;;;5059646;28;20181;-58
2021/01/18 10:06:12;;;;;;;5.25;3.10;;;5.50;99.90;;;;;;5062506;28;20441;-58
2021/01/18 10:08:41;;;;;;;3.40;2.85;;;5.60;99.90;;;;;;5051460;28;20749;-59
2021/01/18 10:11:07;;;;;;;3.25;2.95;;;5.80;99.90;;;;;;5064269;28;20454;-61
2021/01/18 10:13:32;;;;;;;3.58;2.70;;;5.70;99.90;;;;;;5061590;28;20187;-60
2021/01/18 10:16:18;;;;;;;3.63;3.03;;;5.70;99.90;;;;;;5060332;28;20746;-60
2021/01/18 10:18:49;;;;;;;5.63;3.65;;;5.80;99.90;;;;;;5063151;28;20577;-59
2021/01/18 10:21:15;;;;;;;3.63;2.88;;;5.90;99.90;;;;;;5055185;28;20186;-60
2021/01/18 10:23:46;;;;;;;5.17;3.13;;;6.20;99.90;;;;;;5062931;28;20196;-59
2021/01/18 10:26:18;;;;;;;3.13;2.78;;;5.60;99.90;;;;;;5055515;28;20966;-57
2021/01/18 10:28:54;;;;;;;6.50;3.03;;;5.70;99.90;;;;;;5062837;28;20211;-57
2021/01/18 10:31:25;;;;;;;3.63;3.33;;;5.80;99.90;;;;;;5056198;28;20187;-58
2021/01/18 10:34:29;;;;;;;3.50;3.08;;;5.80;99.90;;;;;;5051180;28;20275;-58
2021/01/18 10:37:12;;;;;;;3.47;3.17;;;5.70;99.90;;;;;;5027181;28;20640;-58
2021/01/18 10:39:41;;;;;;;4.00;2.75;;;6.10;99.90;;;;;;5056880;28;20262;-58
2021/01/18 10:42:18;;;;;;;3.17;2.88;;;5.90;99.90;;;;;;5055458;28;20602;-58
2021/01/18 10:44:52;;;;;;;7.00;4.00;;;5.80;99.90;;;;;;5056214;28;20194;-58
2021/01/18 10:47:24;;;;;;;4.13;3.30;;;6.00;99.90;;;;;;5058378;28;20235;-59
2021/01/18 10:50:00;;;;;;;4.93;3.30;;;5.80;99.90;;;;;;5065353;28;20205;-58
2021/01/18 10:52:42;;;;;;;6.72;2.85;;;6.10;99.90;;;;;;5054941;28;20185;-59
2021/01/18 10:55:11;;;;;;;5.18;3.90;;;6.30;99.90;;;;;;5048471;28;20178;-58
2021/01/18 10:57:39;;;;;;;5.28;3.15;;;6.30;99.90;;;;;;5067935;28;20664;-58
2021/01/18 11:00:15;;;;;;;3.78;3.00;;;6.20;99.90;;;;;;5068319;28;20223;-59
2021/01/18 11:02:43;;;;;;;4.85;3.10;;;6.20;99.90;;;;;;5055777;28;20187;-58
2021/01/18 11:05:10;;;;;;;6.20;3.95;;;6.30;99.90;;;;;;5068469;28;20744;-58
2021/01/18 11:07:45;;;;;;;3.60;3.30;;;6.50;99.90;;;;;;5051734;28;20209;-58
2021/01/18 11:10:11;;;;;;;4.88;4.13;;;6.50;99.90;;;;;;5058028;28;20204;-58
2021/01/18 11:12:41;;;;;;;5.32;3.30;;;6.40;99.90;;;;;;5059002;28;20219;-59
2021/01/18 11:15:12;;;;;;;4.15;3.75;;;6.40;99.90;;;;;;5068377;28;20281;-58
2021/01/18 11:17:39;;;;;;;3.65;3.30;;;6.60;99.90;;;;;;5066748;28;20200;-58
2021/01/18 11:20:06;;;;;;;4.18;3.65;;;6.20;99.90;;;;;;5056620;28;20219;-59
2021/01/18 11:22:32;;;;;;;6.93;3.80;;;6.30;99.90;;;;;;5050595;28;20628;-58
2021/01/18 11:24:58;;;;;;;4.60;3.85;;;6.40;99.90;;;;;;5061027;28;20195;-58
2021/01/18 11:27:24;;;;;;;4.40;4.00;;;6.20;99.90;;;;;;5067334;28;20502;-59
2021/01/18 11:29:49;;;;;;;3.23;2.93;;;6.40;99.90;;;;;;5055985;28;20262;-59
2021/01/18 11:32:19;;;;;;;5.03;4.53;;;6.50;99.90;;;;;;5067220;28;20184;-58
2021/01/18 11:34:44;;;;;;;2.90;2.60;;;6.30;99.90;;;;;;5067389;28;20356;-58
2021/01/18 11:37:10;;;;;;;5.60;3.43;;;6.20;99.90;;;;;;5062500;28;20249;-59
2021/01/18 11:39:38;;;;;;;7.63;4.03;;;6.50;99.90;;;;;;5049262;28;20578;-58
2021/01/18 11:42:06;;;;;;;7.68;5.20;;;6.50;99.90;;;;;;5054320;28;20189;-58
2021/01/18 11:44:32;;;;;;;5.35;4.20;;;6.60;99.90;;;;;;5059007;28;20607;-59
2021/01/18 11:46:59;;;;;;;5.15;3.45;;;6.80;99.90;;;;;;5065756;28;20212;-59
2021/01/18 11:49:25;;;;;;;4.35;3.75;;;7.10;99.90;;;;;;5067045;28;20794;-60
2021/01/18 11:51:54;;;;;;;6.22;3.80;;;7.00;99.90;;;;;;5069380;28;20203;-59
2021/01/18 11:54:20;;;;;;;3.97;3.67;;;7.00;99.90;;;;;;5055103;28;20237;-60
2021/01/18 11:56:46;;;;;;;4.22;3.72;;;6.60;99.90;;;;;;5065077;28;20188;-58
2021/01/18 11:59:12;;;;;;;4.83;3.63;;;6.80;99.90;;;;;;5047593;28;20262;-57
2021/01/18 12:01:42;;;;;;;6.90;3.43;;;6.70;99.90;;;;;;5067215;28;20242;-59
2021/01/18 12:04:08;;;;;;;4.07;3.30;;;6.80;99.90;;;;;;5066348;28;20195;-59
2021/01/18 12:06:35;;;;;;;4.60;3.05;;;6.70;99.90;;;;;;5067608;28;20216;-58
2021/01/18 12:09:00;;;;;;;4.72;3.42;;;6.80;99.90;;;;;;5067181;28;20767;-58
2021/01/18 12:11:27;;;;;;;3.30;2.97;;;6.90;99.90;;;;;;5061568;28;20276;-58
2021/01/18 12:13:52;;;;;;;3.20;2.90;;;6.90;99.90;;;;;;5047485;28;20196;-58
2021/01/18 12:16:25;;;;;;;6.93;3.90;;;6.50;99.90;;;;;;5052202;28;20184;-59
2021/01/18 12:18:51;;;;;;;3.60;2.53;;;7.00;99.90;;;;;;5052598;28;20215;-58
2021/01/18 12:21:17;;;;;;;6.15;2.80;;;7.30;99.90;;;;;;5070943;28;20181;-58
2021/01/18 12:23:42;;;;;;;3.70;3.20;;;7.10;99.90;;;;;;5067420;28;20530;-58
2021/01/18 12:26:08;;;;;;;3.00;2.70;;;7.20;99.90;;;;;;5066859;28;20193;-57
2021/01/18 12:28:34;;;;;;;22.53;13.47;;;7.30;99.90;;;;;;5052259;28;20202;-58
2021/01/18 12:30:59;;;;;;;6.10;3.60;;;7.10;99.90;;;;;;5048504;28;20663;-58
2021/01/18 12:33:25;;;;;;;7.03;4.57;;;7.50;99.90;;;;;;5049521;28;20173;-57
2021/01/18 12:35:51;;;;;;;4.30;3.40;;;7.60;99.90;;;;;;5061816;28;20184;-57
2021/01/18 12:38:17;;;;;;;4.20;2.90;;;7.40;99.90;;;;;;5058162;28;20270;-58
2021/01/18 12:40:43;;;;;;;4.17;3.23;;;7.40;99.90;;;;;;5060970;28;20187;-58
2021/01/18 12:43:08;;;;;;;5.35;2.88;;;7.10;99.90;;;;;;5067045;28;20775;-57
2021/01/18 12:45:34;;;;;;;6.43;3.17;;;7.10;99.90;;;;;;5066775;28;20189;-57
2021/01/18 12:48:00;;;;;;;4.57;3.03;;;7.10;99.90;;;;;;5067204;28;20223;-58
2021/01/18 12:50:25;;;;;;;8.57;3.37;;;6.90;99.90;;;;;;5067170;28;20288;-57
2021/01/18 12:52:51;;;;;;;4.20;3.13;;;7.00;99.90;;;;;;5066937;28;20680;-58
2021/01/18 12:55:16;;;;;;;4.60;3.40;;;6.80;99.90;;;;;;5054987;28;20184;-58
2021/01/18 12:57:42;;;;;;;3.43;2.80;;;7.10;99.90;;;;;;5067257;28;20666;-57
2021/01/18 13:00:09;;;;;;;4.60;3.83;;;7.10;99.90;;;;;;5066537;28;20212;-58
2021/01/18 13:02:39;;;;;;;3.60;2.83;;;7.00;99.90;;;;;;5066864;28;20289;-58
2021/01/18 13:05:06;;;;;;;3.05;2.85;;;7.30;99.90;;;;;;5066887;28;20184;-58
2021/01/18 13:07:31;;;;;;;2.90;2.60;;;7.00;99.90;;;;;;5070272;28;20216;-58
2021/01/18 13:09:58;;;;;;;4.23;2.80;;;7.10;99.90;;;;;;5062172;28;20215;-58
2021/01/18 13:12:24;;;;;;;2.85;2.40;;;7.00;99.90;;;;;;5068319;28;20184;-57
2021/01/18 13:14:50;;;;;;;3.78;2.60;;;7.10;99.90;;;;;;5070432;28;20184;-58